CDH Airport (Harrell Field) Information

FAA: CDH - ICAO: KCDH

CDH Airport Location

State Arkansas
County Ouachita
City Camden
CDH Airport is 5 miles northeast of Camden, AR.
Latitude 33-37-22.1000N
Longitude 092-45-48.2000W
Elevation 129ft

KCDH Airport METARs

METAR KCDH 032255Z AUTO 17003KT 2SM BR OVC003 18/18 A3000 RMK AO2
Altimeter 30.00"
Temperature 18.0°C (64.4°F)
Wind 170° at 3KT
Clouds overcast at 300ft
Visibility 2.0mi
Time observed: 2021-12-03T22:55:00Z

CDH Airport Details

Status Operational
Activation October 1944
Ownership Public
Usage Public
Chart MEMPHIS
ATC on-site No
Beacon schedule sunset-sunrise
Beacon color clear green

CDH Airport Contacts

Owner CITY OF CAMDEN
Owner address PO BOX 278, CAMDEN, AR 71711
Owner phone 870-836-6436
Manager EDGAR R. THOMPSON
Manager address 1837 LEWISBURG RD, AUSTIN, AR 72007-9443
Manager phone 501-843-3230

CDH Airport (Harrell Field) Radio Frequencies

CDH (Airport) Radio Frequencies

UNICOM 122.7
Common traffic advisory frequency (CTAF) 122.7